sensor_id;sensor_type;location;lat;lon;timestamp;pressure;altitude;pressure_sealevel;temperature;humidity
63019;BME280;49105;46.046;10.760;2023-08-17T00:01:49;96000.56;;;19.93;77.68
63019;BME280;49105;46.046;10.760;2023-08-17T00:04:17;95995.97;;;19.93;77.75
63019;BME280;49105;46.046;10.760;2023-08-17T00:06:49;95988.25;;;19.92;77.56
63019;BME280;49105;46.046;10.760;2023-08-17T00:09:15;95982.88;;;19.92;77.75
63019;BME280;49105;46.046;10.760;2023-08-17T00:11:40;95984.94;;;19.86;77.53
63019;BME280;49105;46.046;10.760;2023-08-17T00:14:12;95984.19;;;19.77;77.76
63019;BME280;49105;46.046;10.760;2023-08-17T00:16:38;95998.63;;;19.64;78.14
63019;BME280;49105;46.046;10.760;2023-08-17T00:19:03;95990.72;;;19.58;78.48
63019;BME280;49105;46.046;10.760;2023-08-17T00:21:29;96004.16;;;19.58;78.52
63019;BME280;49105;46.046;10.760;2023-08-17T00:24:07;95988.81;;;19.59;78.74
63019;BME280;49105;46.046;10.760;2023-08-17T00:26:39;95987.72;;;19.60;78.65
63019;BME280;49105;46.046;10.760;2023-08-17T00:29:10;95989.91;;;19.58;78.64
63019;BME280;49105;46.046;10.760;2023-08-17T00:31:42;95988.97;;;19.54;78.74
63019;BME280;49105;46.046;10.760;2023-08-17T00:34:13;95992.78;;;19.53;78.59
63019;BME280;49105;46.046;10.760;2023-08-17T00:36:48;95990.28;;;19.48;78.60
63019;BME280;49105;46.046;10.760;2023-08-17T00:39:23;95995.84;;;19.34;78.77
63019;BME280;49105;46.046;10.760;2023-08-17T00:41:57;95992.50;;;19.37;78.93
63019;BME280;49105;46.046;10.760;2023-08-17T00:47:50;95992.34;;;19.42;78.83
63019;BME280;49105;46.046;10.760;2023-08-17T00:50:25;95986.16;;;19.42;79.06
63019;BME280;49105;46.046;10.760;2023-08-17T00:52:53;95988.41;;;19.40;78.87
63019;BME280;49105;46.046;10.760;2023-08-17T00:55:24;95980.19;;;19.36;79.09
63019;BME280;49105;46.046;10.760;2023-08-17T00:57:56;95977.69;;;19.31;78.82
63019;BME280;49105;46.046;10.760;2023-08-17T01:00:32;95978.00;;;19.29;78.94
63019;BME280;49105;46.046;10.760;2023-08-17T01:03:00;95977.56;;;19.19;78.88
63019;BME280;49105;46.046;10.760;2023-08-17T01:05:26;95974.09;;;19.09;79.21
63019;BME280;49105;46.046;10.760;2023-08-17T01:07:55;95977.09;;;19.08;79.51
63019;BME280;49105;46.046;10.760;2023-08-17T01:10:37;95973.44;;;19.13;79.33
63019;BME280;49105;46.046;10.760;2023-08-17T01:13:17;95970.50;;;19.05;79.19
63019;BME280;49105;46.046;10.760;2023-08-17T01:15:56;95964.00;;;19.06;79.18
63019;BME280;49105;46.046;10.760;2023-08-17T01:18:29;95971.56;;;19.13;78.96
63019;BME280;49105;46.046;10.760;2023-08-17T01:21:05;95980.53;;;19.17;78.90
63019;BME280;49105;46.046;10.760;2023-08-17T01:23:37;95985.44;;;19.15;79.03
63019;BME280;49105;46.046;10.760;2023-08-17T01:26:06;95974.72;;;19.15;78.93
63019;BME280;49105;46.046;10.760;2023-08-17T01:28:31;95981.66;;;19.16;78.92
63019;BME280;49105;46.046;10.760;2023-08-17T01:31:30;95980.53;;;19.17;79.00
63019;BME280;49105;46.046;10.760;2023-08-17T01:34:06;95976.13;;;19.13;78.92
63019;BME280;49105;46.046;10.760;2023-08-17T01:36:35;95979.59;;;19.13;79.10
63019;BME280;49105;46.046;10.760;2023-08-17T01:39:05;95982.13;;;19.01;78.92
63019;BME280;49105;46.046;10.760;2023-08-17T01:41:42;95986.59;;;18.79;79.16
63019;BME280;49105;46.046;10.760;2023-08-17T01:44:11;95983.59;;;18.72;79.53
63019;BME280;49105;46.046;10.760;2023-08-17T01:46:37;95989.44;;;18.74;79.84
63019;BME280;49105;46.046;10.760;2023-08-17T01:49:05;95983.75;;;18.76;79.77
63019;BME280;49105;46.046;10.760;2023-08-17T01:51:37;95984.22;;;18.78;79.76
63019;BME280;49105;46.046;10.760;2023-08-17T01:54:05;95986.28;;;18.81;79.42
63019;BME280;49105;46.046;10.760;2023-08-17T01:56:35;95987.38;;;18.80;79.71
63019;BME280;49105;46.046;10.760;2023-08-17T01:59:07;95993.84;;;18.79;79.38
63019;BME280;49105;46.046;10.760;2023-08-17T02:01:39;95984.06;;;18.74;79.42
63019;BME280;49105;46.046;10.760;2023-08-17T02:04:08;95976.97;;;18.78;79.55
63019;BME280;49105;46.046;10.760;2023-08-17T02:06:33;95982.16;;;18.83;79.41
63019;BME280;49105;46.046;10.760;2023-08-17T02:08:59;95978.53;;;18.79;79.29
63019;BME280;49105;46.046;10.760;2023-08-17T02:11:30;95983.75;;;18.76;79.42
63019;BME280;49105;46.046;10.760;2023-08-17T02:13:59;95983.72;;;18.58;79.41
63019;BME280;49105;46.046;10.760;2023-08-17T02:16:25;95978.69;;;18.48;79.55
63019;BME280;49105;46.046;10.760;2023-08-17T02:18:53;95979.91;;;18.51;79.89
63019;BME280;49105;46.046;10.760;2023-08-17T02:21:29;95973.47;;;18.52;79.59
63019;BME280;49105;46.046;10.760;2023-08-17T02:24:02;95970.00;;;18.51;79.71
63019;BME280;49105;46.046;10.760;2023-08-17T02:26:35;95970.16;;;18.55;79.87
63019;BME280;49105;46.046;10.760;2023-08-17T02:29:01;95961.03;;;18.56;79.55
63019;BME280;49105;46.046;10.760;2023-08-17T02:31:32;95959.75;;;18.53;79.63
63019;BME280;49105;46.046;10.760;2023-08-17T02:34:04;95961.66;;;18.53;79.76
63019;BME280;49105;46.046;10.760;2023-08-17T02:36:33;95953.13;;;18.51;79.70
63019;BME280;49105;46.046;10.760;2023-08-17T02:38:59;95957.06;;;18.53;79.75
63019;BME280;49105;46.046;10.760;2023-08-17T02:41:34;95963.84;;;18.51;79.53
63019;BME280;49105;46.046;10.760;2023-08-17T02:44:05;95971.41;;;18.49;79.69
63019;BME280;49105;46.046;10.760;2023-08-17T02:46:30;95965.91;;;18.45;79.42
63019;BME280;49105;46.046;10.760;2023-08-17T02:49:02;95963.38;;;18.40;79.83
63019;BME280;49105;46.046;10.760;2023-08-17T02:51:33;95959.09;;;18.39;80.06
63019;BME280;49105;46.046;10.760;2023-08-17T02:54:05;95954.06;;;18.38;80.17
63019;BME280;49105;46.046;10.760;2023-08-17T02:56:40;95949.66;;;18.42;79.88
63019;BME280;49105;46.046;10.760;2023-08-17T02:59:11;95949.66;;;18.42;79.87
63019;BME280;49105;46.046;10.760;2023-08-17T03:01:37;95958.63;;;18.28;79.90
63019;BME280;49105;46.046;10.760;2023-08-17T03:04:02;95951.38;;;18.12;80.16
63019;BME280;49105;46.046;10.760;2023-08-17T03:06:40;95950.09;;;18.09;80.24
63019;BME280;49105;46.046;10.760;2023-08-17T03:09:17;95954.22;;;18.15;80.27
63019;BME280;49105;46.046;10.760;2023-08-17T03:11:52;95951.22;;;18.25;79.86
63019;BME280;49105;46.046;10.760;2023-08-17T03:14:21;95952.78;;;18.26;79.87
63019;BME280;49105;46.046;10.760;2023-08-17T03:16:46;95947.91;;;18.28;80.00
63019;BME280;49105;46.046;10.760;2023-08-17T03:19:12;95949.03;;;18.27;79.77
63019;BME280;49105;46.046;10.760;2023-08-17T03:21:38;95949.47;;;18.21;79.82
63019;BME280;49105;46.046;10.760;2023-08-17T03:24:12;95947.28;;;18.23;80.15
63019;BME280;49105;46.046;10.760;2023-08-17T03:26:38;95945.53;;;18.18;79.84
63019;BME280;49105;46.046;10.760;2023-08-17T03:29:03;95942.19;;;18.04;80.06
63019;BME280;49105;46.046;10.760;2023-08-17T03:31:29;95942.81;;;18.01;79.91
63019;BME280;49105;46.046;10.760;2023-08-17T03:34:00;95947.41;;;18.00;80.32
63019;BME280;49105;46.046;10.760;2023-08-17T03:36:31;95943.31;;;18.03;80.13
63019;BME280;49105;46.046;10.760;2023-08-17T03:38:56;95940.31;;;18.04;80.02
63019;BME280;49105;46.046;10.760;2023-08-17T03:41:31;95939.03;;;18.02;79.91
63019;BME280;49105;46.046;10.760;2023-08-17T03:44:03;95938.56;;;18.00;80.00
63019;BME280;49105;46.046;10.760;2023-08-17T03:46:40;95936.22;;;17.98;80.36
63019;BME280;49105;46.046;10.760;2023-08-17T03:49:06;95938.41;;;18.05;80.45
63019;BME280;49105;46.046;10.760;2023-08-17T03:51:37;95938.06;;;17.89;79.56
63019;BME280;49105;46.046;10.760;2023-08-17T03:54:05;95942.72;;;17.66;80.32
63019;BME280;49105;46.046;10.760;2023-08-17T03:56:31;95938.78;;;17.72;80.38
63019;BME280;49105;46.046;10.760;2023-08-17T03:58:56;95945.69;;;17.73;80.53
63019;BME280;49105;46.046;10.760;2023-08-17T04:04:28;95939.75;;;17.76;80.62
63019;BME280;49105;46.046;10.760;2023-08-17T04:06:57;95939.06;;;17.62;80.09
63019;BME280;49105;46.046;10.760;2023-08-17T04:09:25;95938.88;;;17.50;80.19
63019;BME280;49105;46.046;10.760;2023-08-17T04:12:01;95939.16;;;17.48;80.87
63019;BME280;49105;46.046;10.760;2023-08-17T04:14:29;95945.00;;;17.50;80.47
63019;BME280;49105;46.046;10.760;2023-08-17T04:17:04;95951.47;;;17.49;80.84
63019;BME280;49105;46.046;10.760;2023-08-17T04:19:34;95933.97;;;17.52;81.10
63019;BME280;49105;46.046;10.760;2023-08-17T04:22:06;95935.91;;;17.60;80.64
63019;BME280;49105;46.046;10.760;2023-08-17T04:24:40;95942.22;;;17.64;80.76
63019;BME280;49105;46.046;10.760;2023-08-17T04:27:15;95948.13;;;17.75;80.37
63019;BME280;49105;46.046;10.760;2023-08-17T04:29:40;95944.75;;;17.69;80.13
63019;BME280;49105;46.046;10.760;2023-08-17T04:32:06;95954.63;;;17.60;80.17
63019;BME280;49105;46.046;10.760;2023-08-17T04:34:31;95950.56;;;17.63;80.63
63019;BME280;49105;46.046;10.760;2023-08-17T04:37:06;95946.97;;;17.67;80.73
63019;BME280;49105;46.046;10.760;2023-08-17T04:39:35;95946.97;;;17.67;80.42
63019;BME280;49105;46.046;10.760;2023-08-17T04:42:04;95953.28;;;17.71;80.39
63019;BME280;49105;46.046;10.760;2023-08-17T04:44:30;95956.41;;;17.73;80.31
63019;BME280;49105;46.046;10.760;2023-08-17T04:47:04;95950.59;;;17.71;80.04
63019;BME280;49105;46.046;10.760;2023-08-17T04:49:34;95958.28;;;17.64;79.91
63019;BME280;49105;46.046;10.760;2023-08-17T04:52:00;95956.25;;;17.61;80.46
63019;BME280;49105;46.046;10.760;2023-08-17T04:54:25;95961.63;;;17.70;80.19
63019;BME280;49105;46.046;10.760;2023-08-17T04:57:00;95958.03;;;17.74;80.02
63019;BME280;49105;46.046;10.760;2023-08-17T04:59:25;95956.00;;;17.80;79.79
63019;BME280;49105;46.046;10.760;2023-08-17T05:01:51;95956.63;;;17.85;79.92
63019;BME280;49105;46.046;10.760;2023-08-17T05:04:17;95949.72;;;17.93;80.16
63019;BME280;49105;46.046;10.760;2023-08-17T05:06:49;95955.91;;;18.02;80.06
63019;BME280;49105;46.046;10.760;2023-08-17T05:09:24;95954.34;;;18.10;79.83
63019;BME280;49105;46.046;10.760;2023-08-17T05:11:49;95950.56;;;18.11;79.97
63019;BME280;49105;46.046;10.760;2023-08-17T05:14:15;95949.63;;;18.07;79.44
63019;BME280;49105;46.046;10.760;2023-08-17T05:16:47;95950.41;;;17.99;79.26
63019;BME280;49105;46.046;10.760;2023-08-17T05:19:15;95945.47;;;17.92;79.05
63019;BME280;49105;46.046;10.760;2023-08-17T05:21:44;95950.84;;;18.01;79.25
63019;BME280;49105;46.046;10.760;2023-08-17T05:24:09;95948.34;;;18.13;79.11
63019;BME280;49105;46.046;10.760;2023-08-17T05:26:44;95957.53;;;18.29;78.93
63019;BME280;49105;46.046;10.760;2023-08-17T05:29:09;95952.81;;;18.44;78.74
63019;BME280;49105;46.046;10.760;2023-08-17T05:31:41;95955.97;;;18.54;78.55
63019;BME280;49105;46.046;10.760;2023-08-17T05:34:07;95952.66;;;18.66;78.30
63019;BME280;49105;46.046;10.760;2023-08-17T05:36:38;95948.88;;;18.76;77.81
63019;BME280;49105;46.046;10.760;2023-08-17T05:39:04;95946.06;;;18.81;77.54
63019;BME280;49105;46.046;10.760;2023-08-17T05:41:30;95950.13;;;18.96;77.58
63019;BME280;49105;46.046;10.760;2023-08-17T05:43:58;95949.00;;;18.97;76.29
63019;BME280;49105;46.046;10.760;2023-08-17T05:46:23;95944.59;;;19.01;76.31
63019;BME280;49105;46.046;10.760;2023-08-17T05:48:58;95950.25;;;19.08;76.02
63019;BME280;49105;46.046;10.760;2023-08-17T05:51:27;95953.72;;;19.17;75.85
63019;BME280;49105;46.046;10.760;2023-08-17T05:53:55;95942.66;;;19.27;75.93
63019;BME280;49105;46.046;10.760;2023-08-17T05:56:21;95940.41;;;19.29;75.45
63019;BME280;49105;46.046;10.760;2023-08-17T05:58:46;95938.84;;;19.28;75.50
63019;BME280;49105;46.046;10.760;2023-08-17T06:01:18;95931.56;;;19.38;75.20
63019;BME280;49105;46.046;10.760;2023-08-17T06:03:50;95929.50;;;19.43;75.07
63019;BME280;49105;46.046;10.760;2023-08-17T06:06:15;95928.34;;;19.53;75.07
63019;BME280;49105;46.046;10.760;2023-08-17T06:08:41;95931.81;;;19.62;74.80
63019;BME280;49105;46.046;10.760;2023-08-17T06:11:15;95932.44;;;19.68;74.57
63019;BME280;49105;46.046;10.760;2023-08-17T06:13:44;95934.59;;;19.74;74.41
63019;BME280;49105;46.046;10.760;2023-08-17T06:16:12;95934.28;;;19.76;74.20
63019;BME280;49105;46.046;10.760;2023-08-17T06:18:44;95931.06;;;19.82;74.24
63019;BME280;49105;46.046;10.760;2023-08-17T06:21:09;95934.38;;;19.88;74.43
63019;BME280;49105;46.046;10.760;2023-08-17T06:23:35;95930.81;;;20.05;74.17
63019;BME280;49105;46.046;10.760;2023-08-17T06:26:01;95926.16;;;20.14;73.88
63019;BME280;49105;46.046;10.760;2023-08-17T06:28:26;95918.22;;;20.18;73.67
63019;BME280;49105;46.046;10.760;2023-08-17T06:31:14;95923.94;;;20.16;73.42
63019;BME280;49105;46.046;10.760;2023-08-17T06:33:39;95918.03;;;20.23;73.50
63019;BME280;49105;46.046;10.760;2023-08-17T06:36:05;95922.63;;;20.22;72.63
63019;BME280;49105;46.046;10.760;2023-08-17T06:38:31;95917.44;;;20.17;72.64
63019;BME280;49105;46.046;10.760;2023-08-17T06:40:56;95920.56;;;20.19;72.37
63019;BME280;49105;46.046;10.760;2023-08-17T06:43:31;95911.09;;;20.22;72.29
63019;BME280;49105;46.046;10.760;2023-08-17T06:46:02;95916.97;;;20.36;72.28
63019;BME280;49105;46.046;10.760;2023-08-17T06:48:28;95916.91;;;20.45;71.88
63019;BME280;49105;46.046;10.760;2023-08-17T06:51:00;95917.00;;;20.57;71.75
63019;BME280;49105;46.046;10.760;2023-08-17T06:53:27;95907.38;;;20.56;70.62
63019;BME280;49105;46.046;10.760;2023-08-17T06:55:52;95910.38;;;20.54;70.42
63019;BME280;49105;46.046;10.760;2023-08-17T06:58:27;95908.28;;;20.60;70.01
63019;BME280;49105;46.046;10.760;2023-08-17T07:01:01;95912.78;;;20.68;69.69
63019;BME280;49105;46.046;10.760;2023-08-17T07:03:33;95907.66;;;20.75;69.30
63019;BME280;49105;46.046;10.760;2023-08-17T07:05:58;95913.22;;;20.91;69.13
63019;BME280;49105;46.046;10.760;2023-08-17T07:08:24;95922.78;;;21.01;68.34
63019;BME280;49105;46.046;10.760;2023-08-17T07:10:58;95916.50;;;21.09;67.69
63019;BME280;49105;46.046;10.760;2023-08-17T07:13:24;95924.16;;;21.07;67.40
63019;BME280;49105;46.046;10.760;2023-08-17T07:19:11;95918.06;;;21.10;68.00
63019;BME280;49105;46.046;10.760;2023-08-17T07:21:38;95917.53;;;21.17;68.08
63019;BME280;49105;46.046;10.760;2023-08-17T07:24:14;95910.28;;;21.29;67.92
63019;BME280;49105;46.046;10.760;2023-08-17T07:26:46;95917.06;;;21.36;67.78
63019;BME280;49105;46.046;10.760;2023-08-17T07:29:21;95916.84;;;21.41;67.72
63019;BME280;49105;46.046;10.760;2023-08-17T07:31:46;95912.13;;;21.50;68.11
63019;BME280;49105;46.046;10.760;2023-08-17T07:34:12;95916.72;;;21.62;68.18
63019;BME280;49105;46.046;10.760;2023-08-17T07:36:46;95910.88;;;21.72;67.80
63019;BME280;49105;46.046;10.760;2023-08-17T07:39:18;95909.56;;;21.78;68.04
63019;BME280;49105;46.046;10.760;2023-08-17T07:41:53;95913.38;;;21.77;67.99
63019;BME280;49105;46.046;10.760;2023-08-17T07:44:19;95915.84;;;21.82;67.47
63019;BME280;49105;46.046;10.760;2023-08-17T07:46:50;95917.75;;;21.69;66.94
63019;BME280;49105;46.046;10.760;2023-08-17T07:49:15;95908.53;;;21.58;66.86
63019;BME280;49105;46.046;10.760;2023-08-17T07:51:41;95911.91;;;21.55;67.31
63019;BME280;49105;46.046;10.760;2023-08-17T07:54:13;95909.31;;;21.59;67.48
63019;BME280;49105;46.046;10.760;2023-08-17T07:56:44;95906.88;;;21.66;67.47
63019;BME280;49105;46.046;10.760;2023-08-17T07:59:19;95904.47;;;21.76;67.41
63019;BME280;49105;46.046;10.760;2023-08-17T08:01:50;95902.38;;;21.82;67.08
63019;BME280;49105;46.046;10.760;2023-08-17T08:04:25;95899.19;;;21.92;66.83
63019;BME280;49105;46.046;10.760;2023-08-17T08:06:50;95900.09;;;21.96;66.30
63019;BME280;49105;46.046;10.760;2023-08-17T08:09:16;95888.75;;;22.03;66.21
63019;BME280;49105;46.046;10.760;2023-08-17T08:11:41;95885.81;;;22.08;66.02
63019;BME280;49105;46.046;10.760;2023-08-17T08:14:07;95885.41;;;22.18;65.97
63019;BME280;49105;46.046;10.760;2023-08-17T08:16:39;95884.22;;;22.32;66.05
63019;BME280;49105;46.046;10.760;2023-08-17T08:19:08;95879.03;;;22.39;65.40
63019;BME280;49105;46.046;10.760;2023-08-17T08:21:36;95880.81;;;22.47;64.02
63019;BME280;49105;46.046;10.760;2023-08-17T08:24:05;95875.59;;;22.54;64.01
63019;BME280;49105;46.046;10.760;2023-08-17T08:26:39;95865.69;;;22.58;61.96
63019;BME280;49105;46.046;10.760;2023-08-17T08:29:05;95861.97;;;22.63;62.38
63019;BME280;49105;46.046;10.760;2023-08-17T08:31:36;95867.75;;;22.77;62.47
63019;BME280;49105;46.046;10.760;2023-08-17T08:34:02;95865.00;;;22.89;62.39
63019;BME280;49105;46.046;10.760;2023-08-17T08:36:33;95867.97;;;23.00;62.02
63019;BME280;49105;46.046;10.760;2023-08-17T08:39:11;95867.75;;;23.05;60.77
63019;BME280;49105;46.046;10.760;2023-08-17T08:41:58;95867.03;;;23.08;60.20
63019;BME280;49105;46.046;10.760;2023-08-17T08:44:24;95862.50;;;23.12;59.20
63019;BME280;49105;46.046;10.760;2023-08-17T08:46:54;95860.53;;;23.25;59.35
63019;BME280;49105;46.046;10.760;2023-08-17T08:49:20;95856.16;;;23.36;59.05
63019;BME280;49105;46.046;10.760;2023-08-17T08:51:51;95852.25;;;23.49;57.82
63019;BME280;49105;46.046;10.760;2023-08-17T08:54:42;95849.78;;;23.60;58.14
63019;BME280;49105;46.046;10.760;2023-08-17T08:57:12;95845.16;;;23.76;58.10
63019;BME280;49105;46.046;10.760;2023-08-17T08:59:48;95836.94;;;23.89;58.17
63019;BME280;49105;46.046;10.760;2023-08-17T09:02:15;95836.81;;;24.01;58.41
63019;BME280;49105;46.046;10.760;2023-08-17T09:04:53;95828.88;;;24.08;58.27
63019;BME280;49105;46.046;10.760;2023-08-17T09:07:22;95837.84;;;24.12;58.56
63019;BME280;49105;46.046;10.760;2023-08-17T09:09:49;95838.31;;;24.18;57.94
63019;BME280;49105;46.046;10.760;2023-08-17T09:12:15;95832.56;;;24.19;57.30
63019;BME280;49105;46.046;10.760;2023-08-17T09:14:40;95824.59;;;24.26;57.22
63019;BME280;49105;46.046;10.760;2023-08-17T09:17:07;95824.75;;;24.34;57.37
63019;BME280;49105;46.046;10.760;2023-08-17T09:19:48;95824.91;;;24.41;57.47
63019;BME280;49105;46.046;10.760;2023-08-17T09:22:38;95814.50;;;24.43;56.55
63019;BME280;49105;46.046;10.760;2023-08-17T09:25:09;95809.25;;;24.50;56.74
63019;BME280;49105;46.046;10.760;2023-08-17T09:27:41;95807.94;;;24.63;57.09
63019;BME280;49105;46.046;10.760;2023-08-17T09:30:19;95805.78;;;24.72;57.01
63019;BME280;49105;46.046;10.760;2023-08-17T09:32:47;95809.69;;;24.75;56.58
63019;BME280;49105;46.046;10.760;2023-08-17T09:35:19;95799.31;;;24.77;55.80
63019;BME280;49105;46.046;10.760;2023-08-17T09:37:44;95795.56;;;24.85;56.11
63019;BME280;49105;46.046;10.760;2023-08-17T09:40:19;95796.47;;;24.93;55.58
63019;BME280;49105;46.046;10.760;2023-08-17T09:42:44;95789.13;;;24.93;55.62
63019;BME280;49105;46.046;10.760;2023-08-17T09:45:10;95792.56;;;24.90;55.30
63019;BME280;49105;46.046;10.760;2023-08-17T09:47:45;95785.94;;;24.88;55.72
63019;BME280;49105;46.046;10.760;2023-08-17T09:50:29;95787.22;;;24.94;55.30
63019;BME280;49105;46.046;10.760;2023-08-17T09:53:04;95787.25;;;24.97;55.65
63019;BME280;49105;46.046;10.760;2023-08-17T09:55:31;95783.13;;;25.04;55.02
63019;BME280;49105;46.046;10.760;2023-08-17T09:58:00;95779.31;;;25.08;55.07
63019;BME280;49105;46.046;10.760;2023-08-17T10:00:27;95779.88;;;25.17;55.41
63019;BME280;49105;46.046;10.760;2023-08-17T10:03:05;95782.69;;;25.24;56.00
63019;BME280;49105;46.046;10.760;2023-08-17T10:05:41;95779.69;;;25.30;55.84
63019;BME280;49105;46.046;10.760;2023-08-17T10:08:07;95777.53;;;25.39;56.13
63019;BME280;49105;46.046;10.760;2023-08-17T10:10:43;95776.16;;;25.52;56.00
63019;BME280;49105;46.046;10.760;2023-08-17T10:16:07;95764.81;;;25.73;56.75
63019;BME280;49105;46.046;10.760;2023-08-17T10:24:14;95754.28;;;25.94;56.50
63019;BME280;49105;46.046;10.760;2023-08-17T10:26:46;95759.38;;;25.99;56.11
63019;BME280;49105;46.046;10.760;2023-08-17T10:32:35;95739.03;;;26.16;55.83
63019;BME280;49105;46.046;10.760;2023-08-17T10:35:08;95735.28;;;26.28;55.60
63019;BME280;49105;46.046;10.760;2023-08-17T10:37:46;95734.22;;;26.36;55.46
63019;BME280;49105;46.046;10.760;2023-08-17T10:40:26;95732.81;;;26.46;55.28
63019;BME280;49105;46.046;10.760;2023-08-17T10:43:02;95736.34;;;26.54;54.53
63019;BME280;49105;46.046;10.760;2023-08-17T10:45:32;95732.94;;;26.60;54.71
63019;BME280;49105;46.046;10.760;2023-08-17T10:50:40;95733.09;;;26.78;51.82
63019;BME280;49105;46.046;10.760;2023-08-17T10:53:12;95731.56;;;26.81;51.80
63019;BME280;49105;46.046;10.760;2023-08-17T10:55:40;95728.59;;;26.96;51.82
63019;BME280;49105;46.046;10.760;2023-08-17T10:58:11;95725.16;;;27.07;51.72
63019;BME280;49105;46.046;10.760;2023-08-17T11:00:54;95717.50;;;27.12;51.29
63019;BME280;49105;46.046;10.760;2023-08-17T11:03:26;95714.41;;;27.17;51.68
63019;BME280;49105;46.046;10.760;2023-08-17T11:05:56;95713.69;;;27.28;50.34
63019;BME280;49105;46.046;10.760;2023-08-17T11:11:06;95704.50;;;27.46;50.92
63019;BME280;49105;46.046;10.760;2023-08-17T11:13:39;95697.56;;;27.60;51.20
63019;BME280;49105;46.046;10.760;2023-08-17T11:16:17;95696.09;;;27.73;50.88
63019;BME280;49105;46.046;10.760;2023-08-17T11:18:45;95691.47;;;27.81;50.73
63019;BME280;49105;46.046;10.760;2023-08-17T11:21:17;95686.06;;;27.88;50.68
63019;BME280;49105;46.046;10.760;2023-08-17T11:23:49;95686.13;;;27.99;51.02
63019;BME280;49105;46.046;10.760;2023-08-17T11:26:23;95688.47;;;28.07;48.39
63019;BME280;49105;46.046;10.760;2023-08-17T11:28:55;95687.69;;;28.00;48.73
63019;BME280;49105;46.046;10.760;2023-08-17T11:31:26;95687.28;;;28.01;49.02
63019;BME280;49105;46.046;10.760;2023-08-17T11:33:58;95677.59;;;28.07;49.27
63019;BME280;49105;46.046;10.760;2023-08-17T11:36:33;95679.19;;;28.15;48.75
63019;BME280;49105;46.046;10.760;2023-08-17T11:38:58;95676.88;;;28.28;48.78
63019;BME280;49105;46.046;10.760;2023-08-17T11:41:29;95676.53;;;28.48;48.13
63019;BME280;49105;46.046;10.760;2023-08-17T11:44:07;95667.59;;;28.61;48.26
63019;BME280;49105;46.046;10.760;2023-08-17T11:46:32;95673.03;;;28.76;48.58
63019;BME280;49105;46.046;10.760;2023-08-17T11:49:01;95669.94;;;28.74;48.14
63019;BME280;49105;46.046;10.760;2023-08-17T11:51:30;95668.75;;;28.75;48.59
63019;BME280;49105;46.046;10.760;2023-08-17T11:54:02;95666.41;;;28.87;48.23
63019;BME280;49105;46.046;10.760;2023-08-17T11:56:30;95669.94;;;28.99;46.89
63019;BME280;49105;46.046;10.760;2023-08-17T11:58:55;95664.50;;;29.06;47.31
63019;BME280;49105;46.046;10.760;2023-08-17T12:01:21;95662.16;;;29.11;47.32
63019;BME280;49105;46.046;10.760;2023-08-17T12:03:48;95655.16;;;29.17;47.13
63019;BME280;49105;46.046;10.760;2023-08-17T12:06:15;95655.09;;;29.28;46.83
63019;BME280;49105;46.046;10.760;2023-08-17T12:08:47;95656.63;;;29.40;47.07
63019;BME280;49105;46.046;10.760;2023-08-17T12:11:13;95652.31;;;29.50;47.20
63019;BME280;49105;46.046;10.760;2023-08-17T12:13:38;95646.50;;;29.48;46.66
63019;BME280;49105;46.046;10.760;2023-08-17T12:16:17;95643.34;;;29.49;46.01
63019;BME280;49105;46.046;10.760;2023-08-17T12:18:52;95657.41;;;29.44;46.07
63019;BME280;49105;46.046;10.760;2023-08-17T12:21:24;95655.47;;;29.37;46.22
63019;BME280;49105;46.046;10.760;2023-08-17T12:24:19;95657.44;;;29.30;46.71
63019;BME280;49105;46.046;10.760;2023-08-17T12:26:57;95651.22;;;29.26;47.26
63019;BME280;49105;46.046;10.760;2023-08-17T12:29:32;95652.00;;;29.30;46.68
63019;BME280;49105;46.046;10.760;2023-08-17T12:31:58;95652.38;;;29.28;47.02
63019;BME280;49105;46.046;10.760;2023-08-17T12:34:24;95652.78;;;29.23;46.37
63019;BME280;49105;46.046;10.760;2023-08-17T12:36:50;95658.25;;;29.20;47.35
63019;BME280;49105;46.046;10.760;2023-08-17T12:39:23;95649.28;;;29.15;47.94
63019;BME280;49105;46.046;10.760;2023-08-17T12:41:48;95654.38;;;29.06;48.84
63019;BME280;49105;46.046;10.760;2023-08-17T12:44:14;95650.09;;;28.98;49.02
63019;BME280;49105;46.046;10.760;2023-08-17T12:46:48;95656.72;;;28.97;50.40
63019;BME280;49105;46.046;10.760;2023-08-17T12:49:14;95646.56;;;28.87;51.07
63019;BME280;49105;46.046;10.760;2023-08-17T12:51:48;95648.16;;;28.74;51.30
63019;BME280;49105;46.046;10.760;2023-08-17T12:54:23;95643.09;;;28.54;51.76
63019;BME280;49105;46.046;10.760;2023-08-17T12:56:58;95642.69;;;28.38;51.72
63019;BME280;49105;46.046;10.760;2023-08-17T12:59:32;95636.00;;;28.14;51.63
63019;BME280;49105;46.046;10.760;2023-08-17T13:02:07;95645.31;;;27.99;51.70
63019;BME280;49105;46.046;10.760;2023-08-17T13:04:33;95641.81;;;27.91;52.19
63019;BME280;49105;46.046;10.760;2023-08-17T13:07:05;95646.78;;;27.75;52.15
63019;BME280;49105;46.046;10.760;2023-08-17T13:09:31;95640.09;;;27.65;52.11
63019;BME280;49105;46.046;10.760;2023-08-17T13:11:59;95640.44;;;27.53;52.19
63019;BME280;49105;46.046;10.760;2023-08-17T13:14:25;95641.22;;;27.46;52.59
63019;BME280;49105;46.046;10.760;2023-08-17T13:16:50;95648.53;;;27.38;52.77
63019;BME280;49105;46.046;10.760;2023-08-17T13:19:25;95642.34;;;27.38;53.06
63019;BME280;49105;46.046;10.760;2023-08-17T13:21:59;95637.66;;;27.35;52.95
63019;BME280;49105;46.046;10.760;2023-08-17T13:24:31;95631.44;;;27.34;53.32
63019;BME280;49105;46.046;10.760;2023-08-17T13:26:59;95635.72;;;27.35;52.98
63019;BME280;49105;46.046;10.760;2023-08-17T13:29:33;95638.03;;;27.30;52.80
63019;BME280;49105;46.046;10.760;2023-08-17T13:32:00;95635.25;;;27.23;51.30
63019;BME280;49105;46.046;10.760;2023-08-17T13:34:32;95634.47;;;27.18;51.57